This is the latest recevied weather packets stored in our database for station/object KM5R. If no packets are shown the sender has not sent any weather packets the latest 10 day(s).
| Time | Temp. | Humidity | Pressure | Rain* | Wind** | Luminosity | Snow |
|---|---|---|---|---|---|---|---|
| 1777847772 | 25° C | 33% | 1018.6 hPa | 0 mm | - | 254 W/m² | - |
| 1777847468 | 25° C | 33% | 1018.8 hPa | 0 mm | - | 376 W/m² | - |
| 1777847166 | 25° C | 34% | 1018.8 hPa | 0 mm | - | 407 W/m² | - |
| 1777846863 | 25° C | 33% | 1019 hPa | 0 mm | - | 383 W/m² | - |
| 1777846561 | 25° C | 33% | 1018.7 hPa | 0 mm | - | 267 W/m² | - |
| 1777846259 | 25° C | 33% | 1018.9 hPa | 0 mm | - | 465 W/m² | - |
| 1777845955 | 25.56° C | 34% | 1019 hPa | 0 mm | - | 498 W/m² | - |
| 1777845652 | 25° C | 34% | 1018.9 hPa | 0 mm | - | 416 W/m² | - |
| 1777845349 | 25° C | 34% | 1019 hPa | 0 mm | - | 452 W/m² | - |
| 1777845046 | 25.56° C | 34% | 1019.2 hPa | 0 mm | - | 445 W/m² | - |
| 1777844744 | 25.56° C | 34% | 1019.4 hPa | 0 mm | - | 498 W/m² | - |
| 1777844440 | 25.56° C | 35% | 1019.3 hPa | 0 mm | - | 494 W/m² | - |
| 1777844139 | 25.56° C | 35% | 1019.4 hPa | 0 mm | - | 524 W/m² | - |
| 1777843835 | 25.56° C | 33% | 1019.5 hPa | 0 mm | - | 254 W/m² | - |
| 1777843533 | 25° C | 35% | 1019.4 hPa | 0 mm | - | 554 W/m² | - |
| 1777843230 | 25.56° C | 35% | 1019.7 hPa | 0 mm | - | 471 W/m² | - |
| 1777842927 | 25.56° C | 33% | 1019.6 hPa | 0 mm | - | 285 W/m² | - |
| 1777842622 | 26.11° C | 33% | 1019.9 hPa | 0 mm | - | 662 W/m² | - |
| 1777842319 | 26.11° C | 32% | 1020 hPa | 0 mm | - | 630 W/m² | - |
| 1777842015 | 25.56° C | 33% | 1020.1 hPa | 0 mm | - | 647 W/m² | - |
| 1777841712 | 25.56° C | 30% | 1020.2 hPa | 0 mm | - | 536 W/m² | - |
| 1777841408 | 25.56° C | 31% | 1020.2 hPa | 0 mm | - | 607 W/m² | - |
| 1777841105 | 25.56° C | 30% | 1020.4 hPa | 0 mm | - | 659 W/m² | - |
| 1777840802 | 25.56° C | 31% | 1020.3 hPa | 0 mm | - | 699 W/m² | - |
| 1777840499 | 25.56° C | 30% | 1020.5 hPa | 0 mm | - | 678 W/m² | - |
* Rain latest hour (hover to see other rain measurements)
** Current wind speed in m/s (hover to see current wind gust speed)